createdAt,value
2019-05-01T00:00:33.184Z,84.56
2019-05-01T00:01:33.345Z,84.56
2019-05-01T00:02:34.008Z,84.35
2019-05-01T00:03:34.502Z,84.35
2019-05-01T00:04:34.509Z,84.87
2019-05-01T00:05:34.016Z,85.38
2019-05-01T00:06:34.123Z,85.59
2019-05-01T00:07:34.401Z,85.17
2019-05-01T00:08:35.546Z,85.49
2019-05-01T00:09:35.522Z,85.83
2019-05-01T00:10:34.981Z,85.52
2019-05-01T00:11:35.093Z,85.73
2019-05-01T00:12:35.343Z,85.31
2019-05-01T00:13:36.001Z,85.52
2019-05-01T00:14:35.618Z,84.80
2019-05-01T00:15:36.509Z,85.31
2019-05-01T00:16:36.507Z,85.22
2019-05-01T00:17:36.524Z,85.22
2019-05-01T00:18:36.369Z,85.31
2019-05-01T00:19:36.504Z,85.31
2019-05-01T00:20:36.617Z,85.22
2019-05-01T00:21:37.510Z,85.69
2019-05-01T00:22:37.030Z,85.38
2019-05-01T00:23:37.135Z,85.22
2019-05-01T00:24:38.009Z,85.52
2019-05-01T00:25:38.508Z,85.28
2019-05-01T00:26:38.500Z,84.59
2019-05-01T00:27:37.974Z,84.59
2019-05-01T00:28:38.098Z,84.59
2019-05-01T00:29:39.005Z,85.42
2019-05-01T00:30:38.355Z,85.36
2019-05-01T00:31:38.478Z,84.94
2019-05-01T00:32:39.036Z,85.73
2019-05-01T00:33:38.902Z,85.22
2019-05-01T00:34:39.145Z,85.83
2019-05-01T00:35:39.267Z,85.25
2019-05-01T00:36:39.450Z,85.46
2019-05-01T00:37:39.584Z,86.18
2019-05-01T00:38:40.729Z,86.39
2019-05-01T00:39:39.836Z,85.25
2019-05-01T00:40:39.974Z,85.87
2019-05-01T00:41:40.113Z,85.77
2019-05-01T00:42:41.014Z,85.57
2019-05-01T00:43:40.503Z,85.57
2019-05-01T00:44:40.638Z,86.02
2019-05-01T00:45:40.792Z,85.91
2019-05-01T00:46:40.925Z,86.49
2019-05-01T00:47:41.058Z,86.39
2019-05-01T00:48:41.519Z,86.39
2019-05-01T00:49:42.033Z,86.39
2019-05-01T00:50:41.640Z,85.57
2019-05-01T00:51:41.784Z,84.84
2019-05-01T00:52:42.516Z,85.15
2019-05-01T00:53:42.172Z,85.77
2019-05-01T00:54:42.378Z,86.18
2019-05-01T00:55:43.523Z,85.25
2019-05-01T00:56:42.788Z,85.57
2019-05-01T00:57:43.951Z,85.60
2019-05-01T00:58:43.058Z,86.02
2019-05-01T00:59:43.207Z,86.12
2019-05-01T01:00:43.533Z,86.32
2019-05-01T01:01:43.544Z,86.12
2019-05-01T01:02:44.040Z,85.19
2019-05-01T01:03:43.816Z,85.91
2019-05-01T01:04:43.960Z,85.50
2019-05-01T01:05:44.141Z,85.81
2019-05-01T01:06:44.278Z,85.91
2019-05-01T01:07:44.417Z,85.60
2019-05-01T01:08:44.559Z,85.50
2019-05-01T01:09:44.700Z,86.22
2019-05-01T01:10:45.031Z,86.32
2019-05-01T01:11:45.055Z,86.53
2019-05-01T01:12:46.019Z,86.53
2019-05-01T01:13:45.399Z,86.94
2019-05-01T01:14:45.548Z,87.15
2019-05-01T01:15:46.683Z,87.35
2019-05-01T01:16:46.527Z,87.05
2019-05-01T01:17:46.162Z,86.02
2019-05-01T01:18:46.264Z,86.53
2019-05-01T01:19:46.394Z,85.91
2019-05-01T01:20:46.528Z,85.60
2019-05-01T01:21:46.700Z,85.81
2019-05-01T01:22:46.828Z,85.71
2019-05-01T01:24:20.347Z,85.50
2019-05-01T01:24:48.029Z,85.60
2019-05-01T01:25:48.044Z,85.19
2019-05-01T01:26:47.541Z,85.46
2019-05-01T01:27:47.657Z,85.91
2019-05-01T01:28:47.871Z,85.39
2019-05-01T01:29:48.010Z,84.64
2019-05-01T01:30:56.100Z,84.27
2019-05-01T01:31:50.384Z,84.27
2019-05-01T01:32:48.569Z,84.47
2019-05-01T01:33:48.691Z,84.16
2019-05-01T01:34:48.829Z,84.67
2019-05-01T01:35:49.070Z,84.78
2019-05-01T01:36:49.230Z,85.39
2019-05-01T01:37:49.402Z,85.95
2019-05-01T01:38:50.551Z,85.54
2019-05-01T01:39:49.803Z,86.57
2019-05-01T01:40:49.961Z,86.12
2019-05-01T01:41:50.154Z,86.68
2019-05-01T01:42:50.553Z,86.78
2019-05-01T01:43:51.049Z,86.53
2019-05-01T01:44:50.652Z,86.36
2019-05-01T01:45:51.536Z,86.57
2019-05-01T01:46:50.899Z,86.47
2019-05-01T01:47:51.059Z,86.53
2019-05-01T01:48:51.209Z,86.12
2019-05-01T01:49:52.046Z,86.53
2019-05-01T01:50:52.044Z,86.22
2019-05-01T01:51:51.642Z,86.22
2019-05-01T01:52:51.781Z,85.60
2019-05-01T01:53:52.552Z,85.91
2019-05-01T01:54:52.153Z,85.30
2019-05-01T01:55:52.309Z,85.54
2019-05-01T01:56:52.431Z,86.12
2019-05-01T01:57:53.064Z,86.32
2019-05-01T01:58:52.785Z,86.43
2019-05-01T01:59:52.921Z,86.57
2019-05-01T02:00:53.061Z,85.50
2019-05-01T02:01:53.196Z,85.44
2019-05-01T02:02:53.353Z,86.53
2019-05-01T02:03:53.492Z,85.85
2019-05-01T02:04:53.623Z,85.02
2019-05-01T02:05:53.756Z,85.91
2019-05-01T02:06:53.873Z,85.54
2019-05-01T02:07:54.102Z,86.26
2019-05-01T02:08:56.615Z,86.57
2019-05-01T02:09:55.435Z,85.54
2019-05-01T02:10:54.675Z,86.26
2019-05-01T02:11:55.540Z,86.05
2019-05-01T02:12:55.585Z,86.26
2019-05-01T02:13:55.197Z,86.47
2019-05-01T02:14:55.332Z,87.44
2019-05-01T02:15:55.561Z,87.13
2019-05-01T02:16:55.672Z,87.65
2019-05-01T02:17:55.799Z,87.58
2019-05-01T02:18:56.080Z,87.34
2019-05-01T02:19:56.203Z,87.44
2019-05-01T02:21:31.510Z,87.37
2019-05-01T02:21:56.564Z,87.54
2019-05-01T02:22:56.801Z,87.95
2019-05-01T02:23:57.065Z,87.79
2019-05-01T02:24:57.181Z,87.79
2019-05-01T02:25:57.416Z,87.27
2019-05-01T02:26:57.642Z,87.48
2019-05-01T02:27:57.858Z,87.37
2019-05-01T02:28:58.005Z,87.89
2019-05-01T02:29:58.121Z,88.10
2019-05-01T02:30:58.357Z,88.78
2019-05-01T02:31:58.633Z,88.10
2019-05-01T02:32:58.747Z,87.34
2019-05-01T02:33:59.002Z,87.58
2019-05-01T02:35:00.111Z,88.10
2019-05-01T02:35:59.287Z,87.58
2019-05-01T02:36:59.614Z,87.37
2019-05-01T02:37:59.730Z,87.54
2019-05-01T02:38:59.975Z,87.37
2019-05-01T02:40:00.102Z,87.58
2019-05-01T02:41:00.230Z,87.58
2019-05-01T02:42:00.459Z,88.10
2019-05-01T02:43:01.576Z,87.79
2019-05-01T02:44:00.910Z,87.58
2019-05-01T02:45:01.038Z,88.20
2019-05-01T02:46:01.189Z,88.10
2019-05-01T02:47:01.287Z,87.27
2019-05-01T02:48:01.518Z,87.37
2019-05-01T02:49:02.087Z,87.27
2019-05-01T02:50:01.801Z,87.27
2019-05-01T02:51:01.966Z,87.62
2019-05-01T02:52:02.081Z,87.41
2019-05-01T02:53:02.201Z,88.24
2019-05-01T02:54:02.440Z,88.24
2019-05-01T02:55:02.569Z,88.31
2019-05-01T02:56:03.704Z,87.68
2019-05-01T02:57:03.599Z,87.89
2019-05-01T02:58:03.069Z,86.96
2019-05-01T02:59:03.185Z,86.76
2019-05-01T03:00:03.444Z,86.44
2019-05-01T03:01:03.610Z,86.55
2019-05-01T03:02:03.730Z,86.65
2019-05-01T03:03:03.862Z,86.86
2019-05-01T03:04:04.089Z,86.55
2019-05-01T03:05:04.233Z,86.49
2019-05-01T03:06:04.350Z,86.69
2019-05-01T03:07:04.637Z,86.79
2019-05-01T03:08:04.768Z,87.62
2019-05-01T03:09:05.589Z,88.14
2019-05-01T03:10:08.930Z,88.71
2019-05-01T03:11:06.086Z,88.86
2019-05-01T03:12:05.413Z,88.71
2019-05-01T03:13:06.120Z,87.37
2019-05-01T03:14:05.860Z,87.52
2019-05-01T03:15:06.069Z,86.34
2019-05-01T03:16:06.319Z,85.41
2019-05-01T03:17:39.832Z,85.62
2019-05-01T03:18:06.668Z,85.55
2019-05-01T03:19:06.870Z,86.03
2019-05-01T03:20:07.082Z,85.97
2019-05-01T03:21:07.296Z,86.79
2019-05-01T03:22:07.521Z,86.49
2019-05-01T03:23:07.715Z,87.15
2019-05-01T03:24:07.943Z,86.79
2019-05-01T03:25:08.162Z,87.10
2019-05-01T03:26:08.401Z,86.73
2019-05-01T03:27:08.639Z,86.83
2019-05-01T03:28:08.737Z,87.15
2019-05-01T03:29:08.920Z,87.25
2019-05-01T03:30:09.046Z,88.07
2019-05-01T03:31:09.276Z,88.90
2019-05-01T03:32:19.396Z,88.24
2019-05-01T03:33:11.605Z,88.34
2019-05-01T03:34:09.829Z,88.18
2019-05-01T03:35:09.949Z,88.04
2019-05-01T03:36:11.200Z,87.93
2019-05-01T03:37:10.410Z,88.18
2019-05-01T03:38:10.595Z,88.76
2019-05-01T03:39:10.739Z,88.24
2019-05-01T03:40:12.340Z,88.65
2019-05-01T03:41:12.041Z,87.73
2019-05-01T03:42:12.278Z,87.79
2019-05-01T03:43:12.547Z,87.83
2019-05-01T03:44:11.676Z,87.41
2019-05-01T03:45:47.065Z,86.59
2019-05-01T03:46:11.989Z,87.52
2019-05-01T03:47:12.113Z,88.39
2019-05-01T03:48:12.252Z,88.07
2019-05-01T03:49:12.504Z,87.97
2019-05-01T03:50:12.611Z,88.28
2019-05-01T03:51:12.733Z,88.45
2019-05-01T03:52:12.872Z,89.32
2019-05-01T03:53:13.013Z,89.42
2019-05-01T03:54:13.280Z,88.70
2019-05-01T03:55:13.404Z,88.59
2019-05-01T03:56:13.528Z,89.01
2019-05-01T03:57:13.757Z,88.18
2019-05-01T03:58:13.977Z,88.07
2019-05-01T03:59:14.130Z,88.07
2019-05-01T04:00:14.268Z,88.39
2019-05-01T04:01:14.407Z,87.66
2019-05-01T04:02:31.742Z,87.97
2019-05-01T04:03:15.745Z,87.87
2019-05-01T04:04:14.976Z,87.87
2019-05-01T04:05:15.083Z,88.18
2019-05-01T04:06:15.330Z,88.22
2019-05-01T04:07:15.452Z,88.32
2019-05-01T04:08:15.695Z,88.49
2019-05-01T04:09:15.855Z,88.70
2019-05-01T04:10:15.959Z,88.90
2019-05-01T04:11:16.077Z,88.07
2019-05-01T04:12:16.335Z,88.80
2019-05-01T04:13:48.892Z,88.28
2019-05-01T04:14:16.613Z,88.28
2019-05-01T04:15:17.183Z,88.49
2019-05-01T04:16:17.037Z,88.59
2019-05-01T04:17:17.184Z,88.07
2019-05-01T04:18:17.352Z,88.96
2019-05-01T04:19:18.173Z,88.28
2019-05-01T04:20:17.710Z,88.28
2019-05-01T04:21:17.863Z,88.18
2019-05-01T04:22:18.011Z,87.66
2019-05-01T04:23:18.676Z,88.28
2019-05-01T04:24:19.298Z,88.18
2019-05-01T04:25:18.668Z,88.18
2019-05-01T04:26:18.671Z,88.28
2019-05-01T04:27:18.795Z,88.39
2019-05-01T04:28:20.040Z,88.70
2019-05-01T04:29:20.182Z,88.59
2019-05-01T04:30:19.676Z,88.86
2019-05-01T04:31:19.552Z,88.28
2019-05-01T04:32:19.802Z,88.90
2019-05-01T04:33:19.920Z,88.65
2019-05-01T04:34:20.058Z,88.45
2019-05-01T04:35:20.684Z,88.76
2019-05-01T04:36:20.429Z,89.13
2019-05-01T04:37:20.596Z,87.73
2019-05-01T04:38:20.718Z,88.10
2019-05-01T04:39:21.681Z,89.03
2019-05-01T04:40:21.193Z,89.23
2019-05-01T04:41:21.176Z,89.34
2019-05-01T04:42:21.306Z,89.44
2019-05-01T04:43:21.521Z,89.40
2019-05-01T04:44:21.667Z,89.29
2019-05-01T04:45:21.909Z,88.47
2019-05-01T04:46:22.003Z,87.71
2019-05-01T04:47:22.149Z,88.53
2019-05-01T04:48:22.285Z,87.81
2019-05-01T04:49:22.425Z,88.12
2019-05-01T04:50:22.542Z,88.02
2019-05-01T04:51:22.673Z,87.71
2019-05-01T04:52:22.845Z,87.26
2019-05-01T04:53:22.973Z,87.19
2019-05-01T04:54:23.094Z,87.40
2019-05-01T04:55:23.743Z,87.05
2019-05-01T04:56:24.356Z,88.02
2019-05-01T04:57:23.581Z,87.60
2019-05-01T04:58:23.852Z,88.70
2019-05-01T04:59:24.663Z,88.08
2019-05-01T05:00:24.162Z,89.05
2019-05-01T05:01:24.295Z,88.18
2019-05-01T05:02:24.433Z,88.12
2019-05-01T05:03:25.178Z,88.64
2019-05-01T05:04:24.661Z,88.70
2019-05-01T05:05:24.777Z,88.80
2019-05-01T05:06:25.672Z,89.36
2019-05-01T05:07:25.196Z,88.70
2019-05-01T05:08:25.295Z,89.05
2019-05-01T05:09:58.609Z,88.80
2019-05-01T05:10:25.680Z,88.70
2019-05-01T05:11:26.207Z,89.17
2019-05-01T05:12:26.032Z,89.01
2019-05-01T05:13:26.714Z,89.38
2019-05-01T05:14:26.378Z,88.65
2019-05-01T05:15:26.588Z,88.96
2019-05-01T05:16:26.795Z,88.35
2019-05-01T05:17:27.024Z,88.20
2019-05-01T05:18:27.258Z,88.92
2019-05-01T05:19:27.468Z,88.72
2019-05-01T05:20:27.646Z,89.03
2019-05-01T05:21:27.842Z,87.75
2019-05-01T05:22:28.058Z,88.47
2019-05-01T05:23:28.310Z,88.89
2019-05-01T05:24:28.529Z,89.29
2019-05-01T05:25:28.660Z,89.09
2019-05-01T05:26:29.703Z,89.36
2019-05-01T05:27:29.003Z,88.74
2019-05-01T05:28:31.317Z,88.84
2019-05-01T05:29:30.352Z,89.15
2019-05-01T05:30:29.527Z,89.05
2019-05-01T05:31:29.750Z,88.84
2019-05-01T05:32:29.951Z,89.46
2019-05-01T05:33:30.197Z,89.46
2019-05-01T05:34:30.424Z,89.46
2019-05-01T05:35:30.546Z,89.77
2019-05-01T05:36:31.788Z,89.67
2019-05-01T05:37:31.003Z,89.46
2019-05-01T05:38:31.237Z,89.46
2019-05-01T05:39:31.365Z,89.05
2019-05-01T05:40:31.599Z,89.62
2019-05-01T05:41:31.715Z,89.73
2019-05-01T05:42:31.829Z,90.45
2019-05-01T05:43:32.090Z,90.34
2019-05-01T05:44:32.228Z,90.55
2019-05-01T05:45:32.370Z,89.73
2019-05-01T05:46:33.209Z,89.83
2019-05-01T05:47:33.197Z,89.11
2019-05-01T05:48:32.827Z,89.01
2019-05-01T05:49:32.957Z,88.80
2019-05-01T05:50:33.063Z,89.52
2019-05-01T05:51:33.202Z,89.94
2019-05-01T05:52:33.340Z,89.48
2019-05-01T05:53:34.215Z,89.52
2019-05-01T05:54:33.715Z,89.42
2019-05-01T05:55:33.833Z,89.38
2019-05-01T05:56:33.983Z,88.76
2019-05-01T05:57:34.142Z,89.22
2019-05-01T05:58:34.307Z,89.52
2019-05-01T05:59:34.482Z,89.31
2019-05-01T06:00:35.209Z,89.01
2019-05-01T06:01:34.825Z,89.62
2019-05-01T06:02:34.965Z,89.94
2019-05-01T06:03:35.255Z,89.52
2019-05-01T06:04:35.270Z,89.67
2019-05-01T06:05:35.389Z,89.97
2019-05-01T06:06:35.520Z,90.28
2019-05-01T06:07:35.672Z,90.69
2019-05-01T06:08:35.774Z,90.55
2019-05-01T06:09:36.222Z,89.94
2019-05-01T06:10:36.737Z,90.34
2019-05-01T06:11:36.716Z,90.69
2019-05-01T06:12:37.372Z,90.55
2019-05-01T06:13:37.892Z,90.49
2019-05-01T06:14:37.080Z,90.34
2019-05-01T06:15:41.202Z,90.55
2019-05-01T06:16:40.373Z,90.45
2019-05-01T06:17:37.652Z,89.94
2019-05-01T06:18:39.343Z,90.39
2019-05-01T06:19:39.019Z,90.45
2019-05-01T06:20:38.202Z,90.34
2019-05-01T06:21:39.355Z,90.14
2019-05-01T06:22:40.740Z,89.31
2019-05-01T06:23:40.641Z,90.08
2019-05-01T06:24:40.430Z,90.39
2019-05-01T06:25:40.026Z,89.97
2019-05-01T06:26:39.579Z,90.18
2019-05-01T06:27:40.365Z,90.45
2019-05-01T06:28:40.215Z,90.55
2019-05-01T06:29:40.222Z,90.96
2019-05-01T06:30:41.955Z,90.45
2019-05-01T06:31:42.115Z,90.55
2019-05-01T06:32:40.324Z,90.09
2019-05-01T06:33:44.318Z,90.34
2019-05-01T06:34:41.722Z,90.34
2019-05-01T06:35:40.923Z,90.14
2019-05-01T06:36:44.368Z,90.66
2019-05-01T06:37:43.723Z,91.06
2019-05-01T06:38:42.238Z,91.27
2019-05-01T06:39:42.883Z,89.89
2019-05-01T06:40:43.880Z,90.45
2019-05-01T06:41:42.720Z,89.58
2019-05-01T06:42:45.695Z,89.38
2019-05-01T06:43:43.722Z,88.82
2019-05-01T06:44:44.338Z,89.17
2019-05-01T06:45:46.853Z,89.48
2019-05-01T06:46:44.897Z,89.38
2019-05-01T06:47:44.276Z,89.28
2019-05-01T06:48:43.268Z,89.17
2019-05-01T06:49:43.419Z,89.38
2019-05-01T06:50:43.547Z,88.76
2019-05-01T06:51:43.682Z,89.28
2019-05-01T06:52:44.718Z,89.38
2019-05-01T06:53:43.973Z,88.56
2019-05-01T06:54:47.860Z,89.03
2019-05-01T06:55:46.213Z,89.13
2019-05-01T06:56:44.540Z,89.44
2019-05-01T06:57:45.698Z,89.13
2019-05-01T06:58:45.843Z,88.14
2019-05-01T06:59:45.236Z,88.66
2019-05-01T07:00:45.213Z,89.69
2019-05-01T07:01:45.354Z,90.30
2019-05-01T07:03:18.366Z,90.00
2019-05-01T07:03:50.455Z,90.81
2019-05-01T07:04:47.911Z,90.41
2019-05-01T07:05:49.088Z,91.23
2019-05-01T07:06:48.318Z,90.26
2019-05-01T07:07:48.263Z,89.75
2019-05-01T07:08:48.740Z,89.95
2019-05-01T07:09:49.334Z,89.23
2019-05-01T07:10:48.109Z,89.13
2019-05-01T07:11:52.593Z,89.03
2019-05-01T07:12:49.466Z,88.62
2019-05-01T07:13:47.548Z,88.47
2019-05-01T07:14:50.809Z,88.89
2019-05-01T07:15:47.920Z,88.37
2019-05-01T07:16:48.052Z,88.27
2019-05-01T07:17:49.005Z,88.02
2019-05-01T07:18:48.401Z,88.53
2019-05-01T07:19:48.540Z,87.82
2019-05-01T07:20:51.564Z,87.51
2019-05-01T07:21:49.840Z,87.26
2019-05-01T07:22:49.745Z,87.57
2019-05-01T07:23:52.230Z,86.91
2019-05-01T07:24:50.393Z,86.50
2019-05-01T07:25:49.616Z,85.89
2019-05-01T07:26:50.268Z,85.58
2019-05-01T07:27:53.925Z,86.09
2019-05-01T07:28:51.130Z,85.99
2019-05-01T07:29:50.364Z,85.78
2019-05-01T07:31:25.964Z,85.44
2019-05-01T07:31:51.707Z,85.64
2019-05-01T07:32:50.942Z,85.19
2019-05-01T07:33:51.496Z,83.65
2019-05-01T07:34:52.272Z,83.96
2019-05-01T07:35:53.847Z,83.65
2019-05-01T07:36:51.741Z,84.27
2019-05-01T07:37:52.842Z,83.55
2019-05-01T07:38:52.066Z,83.61
2019-05-01T07:39:52.228Z,84.03
2019-05-01T07:40:52.348Z,82.45
2019-05-01T07:41:52.601Z,82.35
2019-05-01T07:42:52.726Z,82.86
2019-05-01T07:43:54.857Z,82.04
2019-05-01T07:44:55.095Z,82.65
2019-05-01T07:45:53.298Z,83.37
2019-05-01T07:46:54.137Z,81.90
2019-05-01T07:47:54.618Z,82.31
2019-05-01T07:48:54.282Z,80.94
2019-05-01T07:49:54.697Z,81.01
2019-05-01T07:50:55.139Z,79.98
2019-05-01T07:51:54.341Z,79.53
2019-05-01T07:52:54.500Z,78.31
2019-05-01T07:53:54.650Z,77.62
2019-05-01T07:54:54.820Z,76.70
2019-05-01T07:55:54.954Z,75.13
2019-05-01T07:56:58.753Z,74.38
2019-05-01T07:57:58.292Z,74.79
2019-05-01T07:59:29.231Z,74.45
2019-05-01T07:59:58.282Z,75.37
2019-05-01T08:00:57.811Z,74.55
2019-05-01T08:01:56.028Z,73.43
2019-05-01T08:02:56.806Z,73.64
2019-05-01T08:03:56.402Z,74.66
2019-05-01T08:04:56.537Z,74.86
2019-05-01T08:05:56.681Z,72.79
2019-05-01T08:06:57.382Z,73.71
2019-05-01T08:07:57.962Z,72.86
2019-05-01T08:08:57.179Z,71.84
2019-05-01T08:09:57.335Z,72.04
2019-05-01T08:10:59.924Z,73.10
2019-05-01T08:11:59.827Z,73.30
2019-05-01T08:13:00.248Z,72.55
2019-05-01T08:14:07.262Z,72.31
2019-05-01T08:15:00.405Z,71.80
2019-05-01T08:16:02.125Z,69.76
2019-05-01T08:16:59.846Z,70.99
2019-05-01T08:17:59.825Z,70.82
2019-05-01T08:19:03.991Z,71.84
2019-05-01T08:20:00.838Z,71.63
2019-05-01T08:20:59.541Z,72.34
2019-05-01T08:22:01.669Z,72.65
2019-05-01T08:23:00.929Z,71.09
2019-05-01T08:24:00.811Z,70.82
2019-05-01T08:25:00.280Z,72.45
2019-05-01T08:26:04.015Z,71.84
2019-05-01T08:27:01.644Z,71.53
2019-05-01T08:28:00.849Z,71.94
2019-05-01T08:29:02.977Z,72.28
2019-05-01T08:30:03.195Z,72.00
2019-05-01T08:31:01.397Z,72.41
2019-05-01T08:32:03.532Z,72.72
2019-05-01T08:33:02.751Z,72.38
2019-05-01T08:34:01.970Z,71.97
2019-05-01T08:35:02.820Z,72.79
2019-05-01T08:36:02.301Z,72.52
2019-05-01T08:37:02.426Z,71.47
2019-05-01T08:38:02.663Z,72.04
2019-05-01T08:39:05.037Z,70.62
2019-05-01T08:40:05.004Z,70.31
2019-05-01T08:41:03.205Z,70.04
2019-05-01T08:42:06.973Z,70.04
2019-05-01T08:43:03.631Z,69.73
2019-05-01T08:44:03.769Z,70.28
2019-05-01T08:45:04.968Z,70.89
2019-05-01T08:46:05.053Z,71.73
2019-05-01T08:47:04.281Z,71.53
2019-05-01T08:48:04.438Z,72.24
2019-05-01T08:49:06.907Z,73.50
2019-05-01T08:50:06.800Z,73.27
2019-05-01T08:51:04.988Z,74.56
2019-05-01T08:52:12.626Z,76.64
2019-05-01T08:53:06.236Z,77.39
2019-05-01T08:54:06.338Z,77.97
2019-05-01T08:55:09.360Z,77.56
2019-05-01T08:56:09.843Z,77.42
2019-05-01T08:57:08.017Z,77.79
2019-05-01T08:58:08.731Z,76.70
2019-05-01T08:59:08.443Z,76.60
2019-05-01T09:00:06.650Z,77.72
2019-05-01T09:01:10.827Z,77.52
2019-05-01T09:02:09.707Z,76.19
2019-05-01T09:03:08.919Z,75.95
2019-05-01T09:04:13.002Z,76.90
2019-05-01T09:05:27.660Z,76.70
2019-05-01T09:06:09.706Z,76.46
2019-05-01T09:07:07.918Z,76.77
2019-05-01T09:08:08.860Z,74.90
2019-05-01T09:09:09.895Z,75.16
2019-05-01T09:10:09.262Z,74.55
2019-05-01T09:11:09.754Z,75.07
2019-05-01T09:12:12.026Z,73.71
2019-05-01T09:13:10.167Z,73.36
2019-05-01T09:14:09.363Z,73.36
2019-05-01T09:15:12.774Z,72.75
2019-05-01T09:16:10.741Z,72.04
2019-05-01T09:17:09.954Z,71.47
2019-05-01T09:18:11.847Z,69.93
2019-05-01T09:19:10.326Z,70.86
2019-05-01T09:20:10.438Z,71.12
2019-05-01T09:21:10.577Z,69.84
2019-05-01T09:22:10.723Z,69.02
2019-05-01T09:23:14.376Z,68.01
2019-05-01T09:24:11.980Z,69.94
2019-05-01T09:25:11.191Z,67.50
2019-05-01T09:26:15.880Z,68.72
2019-05-01T09:27:13.342Z,68.21
2019-05-01T09:28:11.808Z,68.08
2019-05-01T09:29:16.092Z,68.25
2019-05-01T09:30:13.211Z,66.86
2019-05-01T09:31:12.309Z,67.77
2019-05-01T09:32:13.342Z,67.19
2019-05-01T09:33:12.584Z,69.02
2019-05-01T09:34:13.957Z,67.88
2019-05-01T09:35:16.108Z,68.08
2019-05-01T09:36:14.077Z,67.27
2019-05-01T09:37:13.205Z,67.47
2019-05-01T09:38:13.344Z,66.08
2019-05-01T09:39:13.497Z,67.24
2019-05-01T09:40:14.350Z,66.72
2019-05-01T09:41:14.867Z,66.93
2019-05-01T09:42:22.726Z,66.29
2019-05-01T09:43:14.087Z,65.04
2019-05-01T09:44:14.311Z,64.98
2019-05-01T09:45:14.481Z,64.95
2019-05-01T09:46:14.618Z,63.63
2019-05-01T09:47:14.753Z,62.52
2019-05-01T09:48:14.906Z,63.39
2019-05-01T09:49:18.323Z,64.53
2019-05-01T09:50:15.222Z,66.83
2019-05-01T09:51:16.345Z,67.84
2019-05-01T09:52:18.835Z,66.63
2019-05-01T09:53:17.349Z,67.30
2019-05-01T09:54:15.902Z,65.37
2019-05-01T09:55:17.839Z,65.68
2019-05-01T09:56:18.389Z,66.26
2019-05-01T09:57:16.561Z,64.98
2019-05-01T09:58:16.794Z,64.34
2019-05-01T09:59:18.939Z,63.12
2019-05-01T10:00:18.178Z,63.83
2019-05-01T10:01:17.360Z,63.86
2019-05-01T10:02:17.578Z,65.59
2019-05-01T10:03:18.183Z,65.39
2019-05-01T10:04:18.012Z,64.37
2019-05-01T10:05:28.388Z,64.07
2019-05-01T10:06:20.460Z,63.69
2019-05-01T10:07:18.663Z,65.11
2019-05-01T10:08:18.838Z,65.78
2019-05-01T10:09:18.935Z,67.20
2019-05-01T10:10:19.847Z,66.29
2019-05-01T10:11:19.174Z,66.26
2019-05-01T10:12:20.350Z,66.66
2019-05-01T10:13:22.360Z,66.33
2019-05-01T10:14:20.694Z,64.24
2019-05-01T10:15:19.901Z,63.20
2019-05-01T10:16:20.017Z,61.55
2019-05-01T10:17:20.137Z,63.50
2019-05-01T10:18:20.284Z,63.93
2019-05-01T10:19:21.360Z,64.07
2019-05-01T10:20:20.573Z,65.62
2019-05-01T10:21:22.420Z,65.92
2019-05-01T10:22:23.853Z,64.58
2019-05-01T10:23:21.172Z,64.14
2019-05-01T10:24:21.278Z,63.09
2019-05-01T10:25:21.514Z,63.60
2019-05-01T10:26:24.062Z,63.07
2019-05-01T10:27:23.362Z,62.76
2019-05-01T10:28:22.054Z,62.73
2019-05-01T10:29:26.019Z,63.17
2019-05-01T10:30:23.376Z,62.26
2019-05-01T10:31:23.597Z,61.52
2019-05-01T10:32:23.241Z,62.12
2019-05-01T10:33:24.020Z,61.41
2019-05-01T10:34:23.854Z,62.73
2019-05-01T10:35:23.349Z,61.41
2019-05-01T10:36:23.476Z,61.92
2019-05-01T10:37:23.754Z,61.82
2019-05-01T10:38:24.801Z,62.86
2019-05-01T10:39:24.013Z,62.56
2019-05-01T10:40:27.082Z,62.84
2019-05-01T10:41:26.392Z,62.53
2019-05-01T10:42:24.597Z,62.26
2019-05-01T10:43:25.351Z,62.56
2019-05-01T10:44:24.868Z,63.27
2019-05-01T10:45:25.004Z,62.43
2019-05-01T10:46:25.871Z,61.35
2019-05-01T10:47:25.374Z,62.89
2019-05-01T10:48:25.539Z,63.87
2019-05-01T10:49:25.696Z,64.07
2019-05-01T10:50:25.875Z,62.86
2019-05-01T10:51:26.010Z,63.40
2019-05-01T10:52:26.122Z,63.83
2019-05-01T10:53:26.261Z,65.02
2019-05-01T10:54:26.395Z,64.41
2019-05-01T10:55:26.558Z,63.47
2019-05-01T10:56:26.720Z,63.44
2019-05-01T10:57:26.855Z,62.33
2019-05-01T10:58:26.995Z,63.95
2019-05-01T10:59:27.162Z,63.95
2019-05-01T11:00:27.317Z,62.53
2019-05-01T11:01:27.498Z,62.15
2019-05-01T11:02:27.642Z,63.17
2019-05-01T11:03:27.768Z,63.78
2019-05-01T11:04:27.893Z,63.24
2019-05-01T11:05:28.051Z,62.15
2019-05-01T11:06:28.172Z,64.38
2019-05-01T11:07:28.435Z,64.61
2019-05-01T11:08:28.554Z,62.99
2019-05-01T11:09:28.759Z,64.44
2019-05-01T11:10:28.894Z,65.59
2019-05-01T11:11:29.011Z,64.54
2019-05-01T11:12:29.146Z,64.98
2019-05-01T11:13:29.313Z,65.82
2019-05-01T11:14:29.450Z,66.33
2019-05-01T11:15:29.579Z,67.44
2019-05-01T11:16:30.366Z,65.62
2019-05-01T11:17:29.822Z,67.68
2019-05-01T11:18:30.047Z,66.97
2019-05-01T11:19:30.170Z,68.66
2019-05-01T11:20:30.418Z,67.48
2019-05-01T11:21:30.523Z,65.83
2019-05-01T11:22:30.771Z,65.02
2019-05-01T11:23:30.904Z,62.72
2019-05-01T11:24:31.001Z,63.63
2019-05-01T11:25:31.245Z,65.56
2019-05-01T11:26:31.363Z,66.47
2019-05-01T11:27:31.492Z,63.23
2019-05-01T11:28:31.731Z,64.31
2019-05-01T11:29:31.843Z,63.93
2019-05-01T11:30:32.108Z,63.63
2019-05-01T11:31:32.226Z,64.64
2019-05-01T11:32:32.438Z,65.15
2019-05-01T11:33:32.686Z,63.43
2019-05-01T11:34:33.378Z,65.18
2019-05-01T11:35:32.982Z,64.04
2019-05-01T11:36:33.870Z,63.73
2019-05-01T11:37:33.248Z,65.02
2019-05-01T11:38:33.376Z,66.03
2019-05-01T11:39:35.958Z,64.79
2019-05-01T11:40:35.741Z,64.07
2019-05-01T11:41:33.933Z,62.23
2019-05-01T11:42:34.065Z,60.81
2019-05-01T11:43:35.215Z,61.01
2019-05-01T11:44:34.888Z,63.13
2019-05-01T11:45:35.381Z,63.10
2019-05-01T11:46:34.781Z,60.85
2019-05-01T11:47:35.883Z,60.72
2019-05-01T11:48:35.150Z,61.49
2019-05-01T11:49:35.342Z,63.58
2019-05-01T11:50:35.469Z,61.53
2019-05-01T11:51:35.629Z,60.62
2019-05-01T11:52:35.775Z,61.00
2019-05-01T11:53:35.938Z,59.71
2019-05-01T11:54:36.059Z,60.39
2019-05-01T11:55:36.211Z,60.19
2019-05-01T11:56:36.878Z,61.17
2019-05-01T11:57:36.541Z,59.96
2019-05-01T11:58:36.697Z,59.76
2019-05-01T11:59:36.840Z,59.25
2019-05-01T12:00:37.000Z,59.96
2019-05-01T12:01:37.125Z,57.56
2019-05-01T12:02:37.256Z,59.45
2019-05-01T12:03:37.400Z,59.25
2019-05-01T12:04:37.517Z,60.46
2019-05-01T12:05:37.789Z,60.29
2019-05-01T12:06:38.880Z,59.86
2019-05-01T12:07:38.104Z,59.96
2019-05-01T12:08:38.214Z,60.02
2019-05-01T12:09:38.443Z,61.33
2019-05-01T12:10:38.605Z,60.49
2019-05-01T12:11:38.720Z,58.60
2019-05-01T12:13:12.257Z,61.43
2019-05-01T12:13:43.866Z,61.33
2019-05-01T12:14:41.169Z,59.91
2019-05-01T12:15:39.353Z,59.34
2019-05-01T12:16:39.611Z,61.25
2019-05-01T12:17:39.731Z,64.29
2019-05-01T12:18:39.846Z,63.15
2019-05-01T12:19:40.083Z,59.78
2019-05-01T12:20:40.313Z,61.07
2019-05-01T12:21:40.930Z,59.22
2019-05-01T12:22:41.412Z,58.62
2019-05-01T12:23:41.004Z,59.00
2019-05-01T12:24:41.227Z,59.30
2019-05-01T12:25:41.464Z,59.09
2019-05-01T12:26:41.706Z,56.90
2019-05-01T12:27:41.925Z,58.45
2019-05-01T12:28:42.142Z,59.08
2019-05-01T12:29:42.354Z,59.58
2019-05-01T12:30:42.579Z,59.31
2019-05-01T12:31:42.933Z,60.89
2019-05-01T12:32:43.034Z,59.56
2019-05-01T12:33:43.267Z,58.54
2019-05-01T12:34:43.468Z,59.25
2019-05-01T12:35:43.702Z,59.33
2019-05-01T12:36:43.818Z,58.49
2019-05-01T12:37:44.089Z,58.89
2019-05-01T12:38:44.199Z,58.69
2019-05-01T12:39:44.438Z,57.68
2019-05-01T12:40:44.676Z,59.20
2019-05-01T12:41:44.824Z,56.88
2019-05-01T12:42:44.932Z,59.00
2019-05-01T12:43:45.207Z,57.56
2019-05-01T12:44:45.319Z,57.45
2019-05-01T12:45:46.413Z,55.74
2019-05-01T12:46:45.783Z,55.01
2019-05-01T12:47:45.934Z,55.51
2019-05-01T12:48:46.054Z,56.12
2019-05-01T12:49:46.162Z,55.74
2019-05-01T12:50:46.409Z,56.45
2019-05-01T12:51:46.644Z,55.82
2019-05-01T12:52:46.898Z,55.91
2019-05-01T12:53:47.003Z,56.22
2019-05-01T12:54:47.153Z,56.72